Tafton, PA (18464)

03:56 PM EDT die 26o August, anno 2016 (GMT -0400)
Spinnlers Point | | Change Station

Elev 1234 ft 41.43 °N, 75.19 °W | Updated 15 seconds ago

Clear
Serena
92.7 °F
Feels Like 96 °F
N
0.0
Ventus Variabilis Ventus from Aquilo
Gusts 4.5 mph

Hodie
High -- | Low -- °F
--% Chance of Precip.
Yesterday
High -- | Low -- °F
Precip. -- in
Pressio 30.07 in
Visibilitas 10.0 milia passuum
Clouds Serena
Index Caloris 96 °F
Frigus in quo Ros apparet 66 °F
Umor 42%
Rainfall 0.00 in
Snow Depth Not available.
6:21 AM 7:42 PM
Waning Crescent, 32% visible
METAR KMPO 261953Z AUTO 33011G15KT 10SM CLR 27/16 A3011 RMK AO2 SLP182 T02720156
Pressio 30.07 in
Visibilitas 10.0 milia passuum
Clouds Serena
Index Caloris 96 °F
Frigus in quo Ros apparet 66 °F
Umor 42%
Rainfall 0.00 in
Snow Depth Not available.
6:21 AM 7:42 PM
Waning Crescent, 32% visible
METAR KMPO 261953Z AUTO 33011G15KT 10SM CLR 27/16 A3011 RMK AO2 SLP182 T02720156

10-Day Weather Forecast

Almanac

Astronomy

Aug. 26, 2016 Rise Set
Actual Time
Civil Twilight
Nautical Twilight
Astronomical Twilight
Moon
Length Of Visible Light
Length of Day
Tomorrow will be .
, % of the Moon is Illuminated

Today's Extremes

State Highs State Lows

Community

WunderPhotos

Upload Photos

1,935,195 photos uploaded!

WunderBlog® & News

Nearby

Air Quality

  Air Quality AQ Index Pollutant
Not available.

Snow Depth

Station Depth Elevation

Earthquake Activity

City Distance Mag. Time & Date
Minimum magnitude displayed is 2.5.

Coastal Water Temperatures

Locus Calor

Stations

Nearby Weather Stations

Station Location Temp Frigus Venti Frigus in quo Ros apparet Umor Ventus Precip. Elev Renovata Type
                   

Watches & Warnings

There are currently no watches in effect.